Briefing drone pour Bourg-les-valence

Rechercher une autre localisation

Conditions de vol :


Nous sommes le : Mercredi 14 avril 2021
Il est 02:56 UTC (04:56 LT)

Lever de soleil : 04:30 UTC (06:30 LT)
Coucher de soleil : 18:51 UTC (20:51 LT)

Météo

L'essentiel des conditions de vol

VIGILANCE MÉTÉO FRANCE - Drôme (26)
Pas de vigilances particulieres
CARTE TEMSI
CARTES DES FRONTS
METAR de LFLU
LFLU 131800Z AUTO 35017KT CAVOK 10/M01 Q1023

Date d'émission: 13/04/2021
Heure d'émission: 18:00 UTC
Vent: 350° pour 17 KT (31 km/h)
Visibilité horizontale: > 10 km
Plafond : Plafond et visibilité OK (CAVOK)
Température: 10 °C
Point de rosée: -1 °C
Humidité: 46%
Pression (QNH): 1023 hPa
Prévision 24h pour Valence (1 km)
Vent : 8° pour 5 KT (18 km/h)
Temperature Maxi: 5 °C
Temperature Min: 5 °C
Humidité : 61%
Condition : Ciel dégagé



Warning: count(): Parameter must be an array or an object that implements Countable in /homepages/6/d509196549/htdocs/droneoxygene/briefing.php on line 743
WEBCAM POUR BOURG-LES-VALENCE

Réglementation

Voler en sécurité

CARTES AERONAUTIQUE 1/500.000
CARTES VAC (LFLU)
SUP AIP




Chargement des AIP...
NOTAM (BOURG-LES-VALENCE + Terrain à proximité / FIR )




Chargement des NOTAMS...
CONTACT PREFECTURE 26
Drôme (26) : ddt-sdsr@drome.gouv.fr


Avertissement : Les données mises à disposition sont indicatives. Oxygène Drone ne pourra être tenu responsable de dégâts causés aux biens et aux personnes.